createdAt,value
2023-02-24T00:02:21.568Z,39.15
2023-02-24T00:05:07.891Z,36.10
2023-02-24T00:07:53.802Z,38.85
2023-02-24T00:10:40.125Z,35.08
2023-02-24T00:13:07.813Z,34.65
2023-02-24T00:16:01.048Z,37.97
2023-02-24T00:18:32.698Z,37.53
2023-02-24T00:21:20.527Z,39.05
2023-02-24T00:24:06.866Z,39.72
2023-02-24T00:27:00.053Z,38.88
2023-02-24T00:29:29.216Z,40.00
2023-02-24T00:32:18.137Z,34.60
2023-02-24T00:35:04.374Z,43.78
2023-02-24T00:37:51.473Z,41.42
2023-02-24T00:40:37.352Z,40.30
2023-02-24T00:43:23.071Z,41.47
2023-02-24T00:46:11.837Z,34.80
2023-02-24T00:48:41.929Z,42.22
2023-02-24T00:51:30.916Z,36.42
2023-02-24T00:53:58.438Z,33.65
2023-02-24T00:56:46.254Z,37.55
2023-02-24T00:59:33.194Z,35.72
2023-02-24T01:02:20.438Z,34.83
2023-02-24T01:05:09.502Z,31.27
2023-02-24T01:07:55.336Z,36.38
2023-02-24T01:11:03.033Z,31.13
2023-02-24T01:13:50.466Z,31.00
2023-02-24T01:16:21.039Z,31.15
2023-02-24T01:19:07.289Z,31.40
2023-02-24T01:21:55.641Z,35.85
2023-02-24T01:24:23.859Z,35.80
2023-02-24T01:27:12.361Z,32.60
2023-02-24T01:30:01.211Z,37.78
2023-02-24T01:32:41.123Z,31.30
2023-02-24T01:35:29.392Z,31.02
2023-02-24T01:38:15.322Z,30.55
2023-02-24T01:41:01.015Z,28.63
2023-02-24T01:44:31.450Z,32.65
2023-02-24T01:47:23.178Z,33.00
2023-02-24T01:50:14.973Z,28.63
2023-02-24T01:53:04.558Z,31.55
2023-02-24T01:55:52.266Z,29.92
2023-02-24T01:58:40.375Z,30.55
2023-02-24T02:01:26.395Z,30.00
2023-02-24T02:04:40.410Z,27.70
2023-02-24T02:07:29.510Z,27.95
2023-02-24T02:10:00.510Z,28.38
2023-02-24T02:12:46.684Z,27.88
2023-02-24T02:15:35.719Z,29.70
2023-02-24T02:18:45.125Z,28.60
2023-02-24T02:21:44.952Z,26.63
2023-02-24T02:24:27.340Z,28.48
2023-02-24T02:27:29.555Z,30.83
2023-02-24T02:30:23.903Z,30.60
2023-02-24T02:33:48.431Z,31.40
2023-02-24T02:37:01.981Z,30.08
2023-02-24T02:39:39.038Z,27.98
2023-02-24T02:42:50.444Z,34.00
2023-02-24T02:45:48.185Z,33.47
2023-02-24T02:48:57.486Z,29.90
2023-02-24T02:51:52.030Z,33.45
2023-02-24T02:54:35.502Z,28.63
2023-02-24T02:57:27.224Z,32.83
2023-02-24T03:00:37.229Z,28.45
2023-02-24T03:03:26.211Z,26.90
2023-02-24T03:05:59.694Z,29.70
2023-02-24T03:09:22.763Z,27.15
2023-02-24T03:12:18.313Z,26.05
2023-02-24T03:15:10.656Z,26.48
2023-02-24T03:18:10.157Z,23.02
2023-02-24T03:21:24.962Z,26.13
2023-02-24T03:24:13.045Z,25.08
2023-02-24T03:27:06.977Z,28.45
2023-02-24T03:30:18.029Z,23.08
2023-02-24T03:33:18.062Z,23.60
2023-02-24T03:36:04.493Z,27.02
2023-02-24T03:38:50.280Z,27.00
2023-02-24T03:41:43.360Z,29.67
2023-02-24T03:44:29.428Z,25.23
2023-02-24T03:47:20.349Z,33.20
2023-02-24T03:50:18.807Z,27.88
2023-02-24T03:53:30.522Z,29.02
2023-02-24T03:56:45.960Z,31.08
2023-02-24T03:59:52.890Z,31.17
2023-02-24T04:02:38.967Z,32.72
2023-02-24T04:05:29.245Z,32.90
2023-02-24T04:08:17.364Z,30.05
2023-02-24T04:10:59.638Z,33.80
2023-02-24T04:13:50.956Z,33.83
2023-02-24T04:17:08.312Z,33.70
2023-02-24T04:19:57.790Z,35.00
2023-02-24T04:22:48.960Z,35.25
2023-02-24T04:25:35.841Z,38.05
2023-02-24T04:28:23.877Z,34.47
2023-02-24T04:31:17.766Z,34.90
2023-02-24T04:34:07.370Z,33.38
2023-02-24T04:36:52.929Z,33.03
2023-02-24T04:39:40.415Z,34.45
2023-02-24T04:42:26.654Z,34.50
2023-02-24T04:45:16.948Z,32.13
2023-02-24T04:48:04.029Z,33.53
2023-02-24T04:50:55.185Z,36.15
2023-02-24T04:53:41.116Z,40.20
2023-02-24T04:56:29.061Z,40.60
2023-02-24T04:59:15.557Z,37.78
2023-02-24T05:02:01.769Z,38.05
2023-02-24T05:04:49.738Z,37.25
2023-02-24T05:07:35.445Z,42.00
2023-02-24T05:10:02.928Z,38.10
2023-02-24T05:12:48.932Z,37.08
2023-02-24T05:15:34.293Z,43.22
2023-02-24T05:18:07.804Z,45.92
2023-02-24T05:21:14.104Z,44.65
2023-02-24T05:24:05.076Z,41.53
2023-02-24T05:26:58.065Z,39.00
2023-02-24T05:29:44.221Z,40.97
2023-02-24T05:32:32.253Z,44.67
2023-02-24T05:35:19.530Z,41.92
2023-02-24T05:37:59.190Z,42.65
2023-02-24T05:40:32.827Z,43.33
2023-02-24T05:43:19.293Z,45.35
2023-02-24T05:46:07.189Z,45.80
2023-02-24T05:48:56.695Z,43.38
2023-02-24T05:51:54.682Z,39.33
2023-02-24T05:54:42.551Z,48.03
2023-02-24T05:57:33.048Z,40.28
2023-02-24T06:00:19.338Z,39.97
2023-02-24T06:03:17.238Z,39.95
2023-02-24T06:06:09.109Z,43.67
2023-02-24T06:08:50.978Z,41.33
2023-02-24T06:11:21.726Z,38.58
2023-02-24T06:13:49.509Z,44.53
2023-02-24T06:16:19.142Z,45.75
2023-02-24T06:18:51.762Z,43.88
2023-02-24T06:21:20.255Z,45.93
2023-02-24T06:23:47.915Z,48.30
2023-02-24T06:26:19.690Z,44.60
2023-02-24T06:29:05.774Z,46.10
2023-02-24T06:31:54.775Z,44.35
2023-02-24T06:34:43.435Z,42.33
2023-02-24T06:37:23.563Z,44.55
2023-02-24T06:40:16.246Z,46.28
2023-02-24T06:43:01.241Z,44.22
2023-02-24T06:45:32.252Z,46.95
2023-02-24T06:48:04.262Z,46.03
2023-02-24T06:50:51.743Z,45.05
2023-02-24T06:53:43.489Z,46.28
2023-02-24T06:56:20.011Z,45.13
2023-02-24T06:59:07.047Z,51.60
2023-02-24T07:01:54.112Z,47.03
2023-02-24T07:04:44.478Z,47.33
2023-02-24T07:07:30.296Z,54.08
2023-02-24T07:10:00.506Z,51.78
2023-02-24T07:12:36.853Z,50.60
2023-02-24T07:15:24.597Z,43.22
2023-02-24T07:18:14.859Z,45.83
2023-02-24T07:20:46.848Z,46.17
2023-02-24T07:23:16.021Z,44.15
2023-02-24T07:25:46.428Z,51.70
2023-02-24T07:28:34.527Z,44.25
2023-02-24T07:31:08.451Z,45.22
2023-02-24T07:33:57.336Z,46.28
2023-02-24T07:36:30.134Z,47.25
2023-02-24T07:39:17.946Z,45.33
2023-02-24T07:42:06.874Z,45.50
2023-02-24T07:44:34.536Z,44.42
2023-02-24T07:47:22.993Z,45.90
2023-02-24T07:50:14.127Z,46.90
2023-02-24T07:53:05.244Z,44.38
2023-02-24T07:55:36.036Z,40.72
2023-02-24T07:58:05.990Z,44.97
2023-02-24T08:01:00.955Z,40.58
2023-02-24T08:03:46.575Z,43.45
2023-02-24T08:06:15.596Z,39.17
2023-02-24T08:09:43.130Z,39.80
2023-02-24T08:12:11.759Z,38.58
2023-02-24T08:15:00.349Z,35.42
2023-02-24T08:17:47.648Z,38.33
2023-02-24T08:20:15.697Z,40.38
2023-02-24T08:23:01.426Z,40.00
2023-02-24T08:25:47.155Z,31.92
2023-02-24T08:28:14.689Z,33.78
2023-02-24T08:30:47.231Z,34.53
2023-02-24T08:33:23.181Z,36.57
2023-02-24T08:36:09.490Z,36.67
2023-02-24T08:38:59.411Z,43.10
2023-02-24T08:41:45.002Z,36.17
2023-02-24T08:44:35.126Z,32.10
2023-02-24T08:47:31.058Z,28.67
2023-02-24T08:50:16.407Z,28.63
2023-02-24T08:53:03.255Z,28.33
2023-02-24T08:55:52.617Z,28.33
2023-02-24T08:58:28.820Z,25.75
2023-02-24T09:01:19.440Z,24.02
2023-02-24T09:04:18.820Z,32.22
2023-02-24T09:07:12.105Z,26.83
2023-02-24T09:09:59.959Z,27.42
2023-02-24T09:12:42.360Z,28.88
2023-02-24T09:15:12.226Z,25.00
2023-02-24T09:18:07.793Z,27.00
2023-02-24T09:20:54.131Z,26.63
2023-02-24T09:23:49.035Z,24.75
2023-02-24T09:26:44.960Z,26.58
2023-02-24T09:29:49.323Z,27.27
2023-02-24T09:32:38.998Z,25.17
2023-02-24T09:35:06.669Z,25.73
2023-02-24T09:37:34.418Z,25.67
2023-02-24T09:40:20.489Z,26.13
2023-02-24T09:43:17.921Z,25.13
2023-02-24T09:46:17.307Z,23.13
2023-02-24T09:48:54.928Z,25.92
2023-02-24T09:51:43.529Z,29.10
2023-02-24T09:54:35.479Z,30.83
2023-02-24T09:57:25.685Z,28.10
2023-02-24T10:00:25.068Z,26.65
2023-02-24T10:03:50.930Z,27.02
2023-02-24T10:06:45.048Z,32.15
2023-02-24T10:09:41.383Z,30.75
2023-02-24T10:12:40.301Z,30.13
2023-02-24T10:15:57.011Z,28.55
2023-02-24T10:18:27.388Z,31.77
2023-02-24T10:22:00.570Z,30.58
2023-02-24T10:25:01.626Z,31.77
2023-02-24T10:28:20.258Z,28.10
2023-02-24T10:31:26.582Z,30.58
2023-02-24T10:34:08.650Z,25.20
2023-02-24T10:36:57.665Z,25.60
2023-02-24T10:39:44.152Z,25.85
2023-02-24T10:42:30.940Z,29.92
2023-02-24T10:45:23.760Z,27.00
2023-02-24T10:51:38.608Z,29.30
2023-02-24T10:54:48.494Z,30.20
2023-02-24T10:57:58.151Z,28.85
2023-02-24T11:01:17.496Z,26.10
2023-02-24T11:04:22.800Z,25.85
2023-02-24T11:07:25.665Z,24.17
2023-02-24T11:10:32.497Z,28.58
2023-02-24T11:13:38.748Z,25.85
2023-02-24T11:16:27.710Z,23.67
2023-02-24T11:18:57.186Z,24.88
2023-02-24T11:21:43.825Z,27.10
2023-02-24T11:24:17.852Z,23.08
2023-02-24T11:27:04.517Z,25.30
2023-02-24T11:30:08.600Z,26.95
2023-02-24T11:33:16.586Z,21.30
2023-02-24T11:36:37.979Z,18.90
2023-02-24T11:39:47.531Z,20.60
2023-02-24T11:42:48.635Z,22.58
2023-02-24T11:45:46.672Z,21.65
2023-02-24T11:48:37.908Z,21.63
2023-02-24T11:51:37.269Z,20.10
2023-02-24T11:54:26.371Z,23.88
2023-02-24T11:57:04.248Z,19.77
2023-02-24T12:00:04.896Z,21.77
2023-02-24T12:03:03.571Z,21.83
2023-02-24T12:05:39.187Z,19.98
2023-02-24T12:08:31.874Z,22.00
2023-02-24T12:11:33.713Z,22.60
2023-02-24T12:14:23.432Z,22.90
2023-02-24T12:17:21.212Z,22.27
2023-02-24T12:20:41.645Z,26.10
2023-02-24T12:23:34.035Z,20.52
2023-02-24T12:26:28.887Z,22.13
2023-02-24T12:29:49.560Z,23.13
2023-02-24T12:32:51.969Z,20.63
2023-02-24T12:35:59.770Z,25.08
2023-02-24T12:39:07.531Z,22.90
2023-02-24T12:41:59.434Z,22.27
2023-02-24T12:44:36.518Z,20.85
2023-02-24T12:47:36.363Z,19.25
2023-02-24T12:50:34.700Z,22.17
2023-02-24T12:53:04.871Z,19.75
2023-02-24T12:55:56.556Z,19.20
2023-02-24T12:58:45.515Z,22.40
2023-02-24T13:01:47.341Z,23.35
2023-02-24T13:04:31.610Z,21.30
2023-02-24T13:07:29.296Z,20.40
2023-02-24T13:10:22.422Z,22.95
2023-02-24T13:13:28.185Z,22.48
2023-02-24T13:16:40.468Z,22.13
2023-02-24T13:19:26.375Z,22.40
2023-02-24T13:22:13.775Z,21.17
2023-02-24T13:24:43.693Z,23.05
2023-02-24T13:27:35.408Z,23.10
2023-02-24T13:30:41.673Z,24.52
2023-02-24T13:33:18.272Z,23.48
2023-02-24T13:36:23.077Z,21.35
2023-02-24T13:39:32.734Z,22.60
2023-02-24T13:42:28.554Z,23.67
2023-02-24T13:45:04.081Z,21.98
2023-02-24T13:47:42.327Z,25.63
2023-02-24T13:50:52.132Z,23.73
2023-02-24T13:54:15.768Z,20.48
2023-02-24T13:57:12.680Z,22.58
2023-02-24T14:00:22.067Z,20.90
2023-02-24T14:03:27.678Z,19.27
2023-02-24T14:06:25.129Z,19.35
2023-02-24T14:09:17.084Z,18.30
2023-02-24T14:12:31.145Z,16.42
2023-02-24T14:15:16.786Z,18.27
2023-02-24T14:18:05.759Z,17.48
2023-02-24T14:20:54.946Z,15.18
2023-02-24T14:23:40.949Z,16.33
2023-02-24T14:26:28.899Z,16.92
2023-02-24T14:29:20.012Z,14.93
2023-02-24T14:32:18.486Z,19.17
2023-02-24T14:35:04.842Z,17.48
2023-02-24T14:37:54.962Z,15.35
2023-02-24T14:40:48.099Z,15.93
2023-02-24T14:43:41.994Z,15.00
2023-02-24T14:46:28.032Z,14.15
2023-02-24T14:49:19.713Z,17.58
2023-02-24T14:52:03.593Z,16.05
2023-02-24T14:54:57.107Z,14.57
2023-02-24T14:57:45.805Z,16.65
2023-02-24T15:00:37.910Z,14.18
2023-02-24T15:03:43.561Z,17.25
2023-02-24T15:06:40.600Z,13.90
2023-02-24T15:09:33.375Z,18.00
2023-02-24T15:12:33.163Z,11.57
2023-02-24T15:15:05.846Z,15.55
2023-02-24T15:17:53.657Z,11.63
2023-02-24T15:20:40.882Z,18.67
2023-02-24T15:23:28.028Z,12.10
2023-02-24T15:25:55.676Z,17.15
2023-02-24T15:28:42.369Z,14.48
2023-02-24T15:31:30.197Z,12.90
2023-02-24T15:34:21.078Z,12.18
2023-02-24T15:37:49.555Z,12.13
2023-02-24T15:40:21.754Z,13.30
2023-02-24T15:43:14.313Z,14.75
2023-02-24T15:48:43.784Z,14.63
2023-02-24T15:51:45.323Z,13.35
2023-02-24T15:54:19.726Z,16.00
2023-02-24T15:56:48.617Z,13.48
2023-02-24T15:59:22.081Z,17.48
2023-02-24T16:02:20.315Z,12.85
2023-02-24T16:04:53.487Z,13.93
2023-02-24T16:07:42.832Z,10.80
2023-02-24T16:10:27.701Z,14.50
2023-02-24T16:13:21.730Z,15.52
2023-02-24T16:18:56.832Z,10.45
2023-02-24T16:21:24.361Z,13.70
2023-02-24T16:23:51.869Z,10.50
2023-02-24T16:26:23.125Z,15.20
2023-02-24T16:28:57.420Z,9.35
2023-02-24T16:31:30.603Z,18.10
2023-02-24T16:34:00.562Z,15.45
2023-02-24T16:36:28.666Z,11.63
2023-02-24T16:39:15.602Z,14.07
2023-02-24T16:42:06.423Z,12.48
2023-02-24T16:44:53.313Z,12.40
2023-02-24T16:47:25.429Z,12.20
2023-02-24T16:50:29.000Z,18.42
2023-02-24T16:52:56.636Z,10.45
2023-02-24T16:55:43.382Z,12.15
2023-02-24T16:58:26.220Z,14.30
2023-02-24T17:01:20.522Z,9.98
2023-02-24T17:04:09.855Z,12.30
2023-02-24T17:06:37.556Z,13.45
2023-02-24T17:09:23.434Z,11.10
2023-02-24T17:12:17.289Z,11.23
2023-02-24T17:15:03.226Z,7.18
2023-02-24T17:17:51.266Z,9.07
2023-02-24T17:20:39.286Z,11.50
2023-02-24T17:23:25.030Z,11.52
2023-02-24T17:26:14.485Z,6.95
2023-02-24T17:29:00.501Z,11.73
2023-02-24T17:31:46.591Z,12.25
2023-02-24T17:34:32.558Z,12.45
2023-02-24T17:36:59.852Z,13.48
2023-02-24T17:39:45.781Z,11.43
2023-02-24T17:42:31.601Z,10.30
2023-02-24T17:44:59.205Z,12.75
2023-02-24T17:47:44.800Z,11.00
2023-02-24T17:50:30.760Z,12.20
2023-02-24T17:53:16.495Z,11.40
2023-02-24T17:56:05.787Z,11.50
2023-02-24T17:58:51.895Z,12.07
2023-02-24T18:01:40.874Z,10.13
2023-02-24T18:04:31.799Z,11.02
2023-02-24T18:07:17.945Z,10.73
2023-02-24T18:09:45.800Z,12.05
2023-02-24T18:12:33.260Z,9.15
2023-02-24T18:15:19.201Z,11.93
2023-02-24T18:18:06.907Z,8.98
2023-02-24T18:20:52.612Z,6.93
2023-02-24T18:23:41.032Z,9.20
2023-02-24T18:26:27.110Z,10.27
2023-02-24T18:28:55.072Z,7.68
2023-02-24T18:31:41.217Z,7.97
2023-02-24T18:34:09.230Z,8.18
2023-02-24T18:36:36.607Z,11.55
2023-02-24T18:39:24.400Z,7.32
2023-02-24T18:42:10.275Z,9.60
2023-02-24T18:44:56.704Z,10.07
2023-02-24T18:47:42.835Z,8.52
2023-02-24T18:50:31.886Z,8.38
2023-02-24T18:53:18.166Z,10.15
2023-02-24T18:56:27.322Z,8.65
2023-02-24T18:59:13.440Z,11.15
2023-02-24T19:02:02.579Z,8.90
2023-02-24T19:04:48.871Z,11.70
2023-02-24T19:07:36.114Z,12.63
2023-02-24T19:10:22.047Z,14.32
2023-02-24T19:13:02.571Z,14.32
2023-02-24T19:15:48.777Z,13.52
2023-02-24T19:18:36.308Z,11.38
2023-02-24T19:21:23.102Z,17.80
2023-02-24T19:24:11.322Z,17.13
2023-02-24T19:26:57.662Z,14.35
2023-02-24T19:29:45.164Z,16.83
2023-02-24T19:32:31.131Z,16.90
2023-02-24T19:35:09.519Z,14.98
2023-02-24T19:37:39.433Z,19.70
2023-02-24T19:40:26.471Z,16.38
2023-02-24T19:43:14.115Z,16.30
2023-02-24T19:46:08.333Z,20.13
2023-02-24T19:48:48.710Z,20.10
2023-02-24T19:51:36.052Z,16.83
2023-02-24T19:54:25.732Z,18.15
2023-02-24T19:57:11.420Z,19.13
2023-02-24T19:59:59.311Z,17.27
2023-02-24T20:02:27.428Z,14.02
2023-02-24T20:05:13.425Z,16.77
2023-02-24T20:10:34.246Z,12.82
2023-02-24T20:13:23.720Z,12.90
2023-02-24T20:16:13.903Z,13.15
2023-02-24T20:18:55.577Z,13.88
2023-02-24T20:21:45.529Z,14.45
2023-02-24T20:24:36.941Z,11.63
2023-02-24T20:27:26.919Z,18.95
2023-02-24T20:29:57.309Z,14.85
2023-02-24T20:32:45.567Z,19.30
2023-02-24T20:35:13.200Z,16.45
2023-02-24T20:38:06.324Z,12.30
2023-02-24T20:40:43.693Z,16.25
2023-02-24T20:43:23.650Z,45.38
2023-02-24T20:46:31.425Z,15.52
2023-02-24T20:49:24.801Z,14.20
2023-02-24T20:52:12.337Z,14.75
2023-02-24T20:55:01.910Z,16.70
2023-02-24T20:57:56.194Z,16.15
2023-02-24T21:00:48.270Z,16.42
2023-02-24T21:03:41.918Z,14.88
2023-02-24T21:18:38.051Z,18.03
2023-02-24T21:33:09.761Z,12.93
2023-02-24T21:36:05.105Z,18.42
2023-02-24T21:38:54.365Z,17.40
2023-02-24T21:41:53.298Z,16.00
2023-02-24T21:45:03.691Z,11.88
2023-02-24T21:47:34.474Z,18.90
2023-02-24T21:50:15.337Z,21.52
2023-02-24T21:52:54.956Z,15.90
2023-02-24T21:55:26.803Z,12.63
2023-02-24T21:58:07.493Z,14.07
2023-02-24T22:00:34.955Z,17.83
2023-02-24T22:03:07.510Z,14.32
2023-02-24T22:05:34.973Z,10.90
2023-02-24T22:08:05.663Z,9.75
2023-02-24T22:10:33.153Z,8.38
2023-02-24T22:13:02.810Z,10.90
2023-02-24T22:15:33.078Z,13.10
2023-02-24T22:18:00.391Z,9.20
2023-02-24T22:20:38.120Z,12.18
2023-02-24T22:23:07.550Z,10.20
2023-02-24T22:25:37.879Z,10.38
2023-02-24T22:28:12.690Z,9.65
2023-02-24T22:30:42.597Z,10.63
2023-02-24T22:33:09.968Z,10.60
2023-02-24T22:35:42.813Z,10.88
2023-02-24T22:38:13.597Z,7.45
2023-02-24T22:40:59.625Z,7.97
2023-02-24T22:43:33.901Z,7.07
2023-02-24T22:46:07.229Z,6.88
2023-02-24T22:48:37.921Z,7.13
2023-02-24T22:51:10.316Z,7.45
2023-02-24T22:53:44.455Z,7.28
2023-02-24T22:56:13.414Z,6.40
2023-02-24T22:58:46.229Z,16.48
2023-02-24T23:01:25.535Z,8.70
2023-02-24T23:03:58.939Z,10.60
2023-02-24T23:06:30.118Z,9.30
2023-02-24T23:08:59.730Z,12.95
2023-02-24T23:11:36.452Z,9.20
2023-02-24T23:14:10.151Z,8.95
2023-02-24T23:16:41.514Z,8.10
2023-02-24T23:19:16.866Z,7.75
2023-02-24T23:21:47.170Z,11.48
2023-02-24T23:24:21.701Z,7.68
2023-02-24T23:26:57.989Z,11.02
2023-02-24T23:29:26.730Z,6.55
2023-02-24T23:32:12.447Z,6.35
2023-02-24T23:34:58.177Z,8.38
2023-02-24T23:37:28.283Z,9.60
2023-02-24T23:40:17.223Z,10.52
2023-02-24T23:43:03.014Z,15.88
2023-02-24T23:45:49.183Z,10.23
2023-02-24T23:48:35.007Z,14.23
2023-02-24T23:51:13.970Z,7.30
2023-02-24T23:53:45.920Z,11.18
2023-02-24T23:56:21.761Z,11.70
2023-02-24T23:58:56.945Z,17.00
